sensor_id;sensor_type;location;lat;lon;timestamp;temperature;humidity
22224;DHT22;11281;52.194;21.006;2022-12-29T00:01:17;5.40;99.90
22224;DHT22;11281;52.194;21.006;2022-12-29T00:05:39;5.30;99.90
22224;DHT22;11281;52.194;21.006;2022-12-29T00:10:01;5.40;99.90
22224;DHT22;11281;52.194;21.006;2022-12-29T00:14:22;5.40;99.90
22224;DHT22;11281;52.194;21.006;2022-12-29T00:19:04;5.40;99.90
22224;DHT22;11281;52.194;21.006;2022-12-29T00:23:26;5.40;99.90
22224;DHT22;11281;52.194;21.006;2022-12-29T00:28:13;5.40;99.90
22224;DHT22;11281;52.194;21.006;2022-12-29T00:32:53;5.40;99.90
22224;DHT22;11281;52.194;21.006;2022-12-29T00:37:42;5.40;99.90
22224;DHT22;11281;52.194;21.006;2022-12-29T00:42:23;5.40;99.90
22224;DHT22;11281;52.194;21.006;2022-12-29T00:47:03;5.40;99.90
22224;DHT22;11281;52.194;21.006;2022-12-29T00:51:25;5.50;99.90
22224;DHT22;11281;52.194;21.006;2022-12-29T00:55:47;5.60;99.90
22224;DHT22;11281;52.194;21.006;2022-12-29T01:00:09;5.60;99.90
22224;DHT22;11281;52.194;21.006;2022-12-29T01:04:32;5.50;99.90
22224;DHT22;11281;52.194;21.006;2022-12-29T01:08:53;5.50;99.90
22224;DHT22;11281;52.194;21.006;2022-12-29T01:13:34;5.60;99.90
22224;DHT22;11281;52.194;21.006;2022-12-29T01:17:56;5.50;99.90
22224;DHT22;11281;52.194;21.006;2022-12-29T01:22:18;5.60;99.90
22224;DHT22;11281;52.194;21.006;2022-12-29T01:26:40;5.60;99.90
22224;DHT22;11281;52.194;21.006;2022-12-29T01:31:02;5.60;99.90
22224;DHT22;11281;52.194;21.006;2022-12-29T01:35:23;5.50;99.90
22224;DHT22;11281;52.194;21.006;2022-12-29T01:39:45;5.60;99.90
22224;DHT22;11281;52.194;21.006;2022-12-29T01:49:18;5.60;99.90
22224;DHT22;11281;52.194;21.006;2022-12-29T01:53:41;5.60;99.90
22224;DHT22;11281;52.194;21.006;2022-12-29T01:58:05;5.60;99.90
22224;DHT22;11281;52.194;21.006;2022-12-29T02:02:27;5.50;99.90
22224;DHT22;11281;52.194;21.006;2022-12-29T02:07:01;5.60;99.90
22224;DHT22;11281;52.194;21.006;2022-12-29T02:11:26;5.60;99.90
22224;DHT22;11281;52.194;21.006;2022-12-29T02:21:20;5.40;99.90
22224;DHT22;11281;52.194;21.006;2022-12-29T02:35:37;5.20;99.90
22224;DHT22;11281;52.194;21.006;2022-12-29T02:40:26;5.20;99.90
22224;DHT22;11281;52.194;21.006;2022-12-29T02:49:28;5.00;99.90
22224;DHT22;11281;52.194;21.006;2022-12-29T02:53:56;5.00;99.90
22224;DHT22;11281;52.194;21.006;2022-12-29T02:58:36;4.90;99.90
22224;DHT22;11281;52.194;21.006;2022-12-29T03:03:26;4.90;99.90
22224;DHT22;11281;52.194;21.006;2022-12-29T03:13:59;4.70;99.90
22224;DHT22;11281;52.194;21.006;2022-12-29T03:18:34;4.60;99.90
22224;DHT22;11281;52.194;21.006;2022-12-29T03:23:02;4.60;99.90
22224;DHT22;11281;52.194;21.006;2022-12-29T03:27:52;4.60;99.90
22224;DHT22;11281;52.194;21.006;2022-12-29T03:32:16;4.50;99.90
22224;DHT22;11281;52.194;21.006;2022-12-29T03:36:53;4.50;99.90
22224;DHT22;11281;52.194;21.006;2022-12-29T03:41:24;4.50;99.90
22224;DHT22;11281;52.194;21.006;2022-12-29T03:45:47;4.50;99.90
22224;DHT22;11281;52.194;21.006;2022-12-29T03:50:12;4.50;99.90
22224;DHT22;11281;52.194;21.006;2022-12-29T03:54:34;4.50;99.90
22224;DHT22;11281;52.194;21.006;2022-12-29T03:58:56;4.50;99.90
22224;DHT22;11281;52.194;21.006;2022-12-29T04:03:17;4.30;99.90
22224;DHT22;11281;52.194;21.006;2022-12-29T04:07:39;4.30;99.90
22224;DHT22;11281;52.194;21.006;2022-12-29T04:12:01;4.30;99.90
22224;DHT22;11281;52.194;21.006;2022-12-29T04:16:23;4.20;99.90
22224;DHT22;11281;52.194;21.006;2022-12-29T04:20:44;4.30;99.90
22224;DHT22;11281;52.194;21.006;2022-12-29T04:25:21;4.30;99.90
22224;DHT22;11281;52.194;21.006;2022-12-29T04:29:43;4.20;99.90
22224;DHT22;11281;52.194;21.006;2022-12-29T04:34:04;4.20;99.90
22224;DHT22;11281;52.194;21.006;2022-12-29T04:38:27;4.10;99.90
22224;DHT22;11281;52.194;21.006;2022-12-29T04:42:49;4.10;99.90
22224;DHT22;11281;52.194;21.006;2022-12-29T04:47:11;4.00;99.90
22224;DHT22;11281;52.194;21.006;2022-12-29T04:51:33;4.00;99.90
22224;DHT22;11281;52.194;21.006;2022-12-29T04:55:54;3.90;99.90
22224;DHT22;11281;52.194;21.006;2022-12-29T05:00:16;3.90;99.90
22224;DHT22;11281;52.194;21.006;2022-12-29T05:04:38;4.00;99.90
22224;DHT22;11281;52.194;21.006;2022-12-29T05:09:00;3.90;99.90
22224;DHT22;11281;52.194;21.006;2022-12-29T05:13:21;3.90;99.90
22224;DHT22;11281;52.194;21.006;2022-12-29T05:17:43;3.90;99.90
22224;DHT22;11281;52.194;21.006;2022-12-29T05:22:05;3.90;99.90
22224;DHT22;11281;52.194;21.006;2022-12-29T05:26:26;3.90;99.90
22224;DHT22;11281;52.194;21.006;2022-12-29T05:30:50;3.80;99.90
22224;DHT22;11281;52.194;21.006;2022-12-29T05:35:11;3.80;99.90
22224;DHT22;11281;52.194;21.006;2022-12-29T05:39:34;3.90;99.90
22224;DHT22;11281;52.194;21.006;2022-12-29T05:43:55;3.90;99.90
22224;DHT22;11281;52.194;21.006;2022-12-29T05:48:17;3.90;99.90
22224;DHT22;11281;52.194;21.006;2022-12-29T05:52:39;3.90;99.90
22224;DHT22;11281;52.194;21.006;2022-12-29T05:57:00;3.90;99.90
22224;DHT22;11281;52.194;21.006;2022-12-29T06:01:22;3.90;99.90
22224;DHT22;11281;52.194;21.006;2022-12-29T06:05:45;3.80;99.90
22224;DHT22;11281;52.194;21.006;2022-12-29T06:10:07;3.70;99.90
22224;DHT22;11281;52.194;21.006;2022-12-29T06:14:29;3.60;99.90
22224;DHT22;11281;52.194;21.006;2022-12-29T06:18:51;3.60;99.90
22224;DHT22;11281;52.194;21.006;2022-12-29T06:23:12;3.50;99.90
22224;DHT22;11281;52.194;21.006;2022-12-29T06:27:34;3.50;99.90
22224;DHT22;11281;52.194;21.006;2022-12-29T06:31:56;3.40;99.90
22224;DHT22;11281;52.194;21.006;2022-12-29T06:36:19;3.40;99.90
22224;DHT22;11281;52.194;21.006;2022-12-29T06:40:42;3.50;99.90
22224;DHT22;11281;52.194;21.006;2022-12-29T06:45:06;3.60;99.90
22224;DHT22;11281;52.194;21.006;2022-12-29T06:49:28;3.70;99.90
22224;DHT22;11281;52.194;21.006;2022-12-29T06:53:50;3.80;99.90
22224;DHT22;11281;52.194;21.006;2022-12-29T06:58:12;3.80;99.90
22224;DHT22;11281;52.194;21.006;2022-12-29T07:02:33;3.80;99.90
22224;DHT22;11281;52.194;21.006;2022-12-29T07:06:55;3.90;99.90
22224;DHT22;11281;52.194;21.006;2022-12-29T07:11:17;3.90;99.90
22224;DHT22;11281;52.194;21.006;2022-12-29T07:15:38;3.90;99.90
22224;DHT22;11281;52.194;21.006;2022-12-29T07:20:00;3.90;99.90
22224;DHT22;11281;52.194;21.006;2022-12-29T07:24:22;4.00;99.90
22224;DHT22;11281;52.194;21.006;2022-12-29T07:28:43;4.00;99.90
22224;DHT22;11281;52.194;21.006;2022-12-29T07:33:05;4.00;99.90
22224;DHT22;11281;52.194;21.006;2022-12-29T07:37:27;3.90;99.90
22224;DHT22;11281;52.194;21.006;2022-12-29T07:41:49;4.00;99.90
22224;DHT22;11281;52.194;21.006;2022-12-29T07:46:10;4.00;99.90
22224;DHT22;11281;52.194;21.006;2022-12-29T07:50:33;4.10;99.90
22224;DHT22;11281;52.194;21.006;2022-12-29T07:54:57;4.30;99.90
22224;DHT22;11281;52.194;21.006;2022-12-29T07:59:19;4.50;99.90
22224;DHT22;11281;52.194;21.006;2022-12-29T08:03:41;4.60;99.90
22224;DHT22;11281;52.194;21.006;2022-12-29T08:08:03;4.70;99.90
22224;DHT22;11281;52.194;21.006;2022-12-29T08:12:24;4.70;99.90
22224;DHT22;11281;52.194;21.006;2022-12-29T08:16:46;5.00;99.90
22224;DHT22;11281;52.194;21.006;2022-12-29T08:21:08;5.10;99.90
22224;DHT22;11281;52.194;21.006;2022-12-29T08:25:30;5.20;99.90
22224;DHT22;11281;52.194;21.006;2022-12-29T08:29:52;5.20;99.90
22224;DHT22;11281;52.194;21.006;2022-12-29T08:34:13;5.20;99.90
22224;DHT22;11281;52.194;21.006;2022-12-29T08:38:35;5.30;99.90
22224;DHT22;11281;52.194;21.006;2022-12-29T08:42:57;5.50;99.90
22224;DHT22;11281;52.194;21.006;2022-12-29T08:47:18;5.60;99.90
22224;DHT22;11281;52.194;21.006;2022-12-29T08:51:40;5.70;99.90
22224;DHT22;11281;52.194;21.006;2022-12-29T08:56:02;5.70;99.90
22224;DHT22;11281;52.194;21.006;2022-12-29T09:00:25;5.70;99.90
22224;DHT22;11281;52.194;21.006;2022-12-29T09:04:46;5.70;99.90
22224;DHT22;11281;52.194;21.006;2022-12-29T09:09:08;5.80;99.90
22224;DHT22;11281;52.194;21.006;2022-12-29T09:13:30;5.80;99.90
22224;DHT22;11281;52.194;21.006;2022-12-29T09:17:52;5.90;99.90
22224;DHT22;11281;52.194;21.006;2022-12-29T09:22:13;6.10;99.90
22224;DHT22;11281;52.194;21.006;2022-12-29T09:26:35;6.20;99.90
22224;DHT22;11281;52.194;21.006;2022-12-29T09:30:57;6.20;99.90
22224;DHT22;11281;52.194;21.006;2022-12-29T09:35:19;6.30;99.90
22224;DHT22;11281;52.194;21.006;2022-12-29T09:39:41;6.30;99.90
22224;DHT22;11281;52.194;21.006;2022-12-29T09:44:31;6.30;99.90
22224;DHT22;11281;52.194;21.006;2022-12-29T09:54:10;6.40;99.90
22224;DHT22;11281;52.194;21.006;2022-12-29T09:58:39;6.40;99.90
22224;DHT22;11281;52.194;21.006;2022-12-29T10:03:19;6.50;99.90
22224;DHT22;11281;52.194;21.006;2022-12-29T10:08:00;6.50;99.90
22224;DHT22;11281;52.194;21.006;2022-12-29T10:13:10;6.50;99.90
22224;DHT22;11281;52.194;21.006;2022-12-29T10:26:52;6.80;99.90
22224;DHT22;11281;52.194;21.006;2022-12-29T10:31:24;6.80;99.90
22224;DHT22;11281;52.194;21.006;2022-12-29T10:35:47;6.90;99.90
22224;DHT22;11281;52.194;21.006;2022-12-29T10:45:26;7.00;99.90
22224;DHT22;11281;52.194;21.006;2022-12-29T10:49:50;7.20;99.90
22224;DHT22;11281;52.194;21.006;2022-12-29T10:54:23;7.30;99.90
22224;DHT22;11281;52.194;21.006;2022-12-29T10:58:49;7.40;99.90
22224;DHT22;11281;52.194;21.006;2022-12-29T11:08:04;7.50;99.90
22224;DHT22;11281;52.194;21.006;2022-12-29T11:12:31;7.50;99.90
22224;DHT22;11281;52.194;21.006;2022-12-29T11:17:01;7.50;99.90
22224;DHT22;11281;52.194;21.006;2022-12-29T11:21:40;7.60;99.90
22224;DHT22;11281;52.194;21.006;2022-12-29T11:26:13;7.70;99.90
22224;DHT22;11281;52.194;21.006;2022-12-29T11:30:37;7.70;99.90
22224;DHT22;11281;52.194;21.006;2022-12-29T11:34:59;7.70;99.90
22224;DHT22;11281;52.194;21.006;2022-12-29T11:39:37;7.60;99.90
22224;DHT22;11281;52.194;21.006;2022-12-29T11:44:05;7.40;99.90
22224;DHT22;11281;52.194;21.006;2022-12-29T11:48:31;7.50;99.90
22224;DHT22;11281;52.194;21.006;2022-12-29T11:57:41;7.50;99.90
22224;DHT22;11281;52.194;21.006;2022-12-29T12:07:39;7.60;99.90
22224;DHT22;11281;52.194;21.006;2022-12-29T12:12:03;7.60;99.90
22224;DHT22;11281;52.194;21.006;2022-12-29T12:16:34;7.50;99.90
22224;DHT22;11281;52.194;21.006;2022-12-29T12:26:10;7.60;99.90
22224;DHT22;11281;52.194;21.006;2022-12-29T12:30:40;7.60;99.90
22224;DHT22;11281;52.194;21.006;2022-12-29T12:35:14;7.70;99.90
22224;DHT22;11281;52.194;21.006;2022-12-29T12:49:34;7.80;99.90
22224;DHT22;11281;52.194;21.006;2022-12-29T12:54:29;7.90;99.90
22224;DHT22;11281;52.194;21.006;2022-12-29T13:00:00;7.80;99.90
22224;DHT22;11281;52.194;21.006;2022-12-29T13:04:42;7.70;99.90
22224;DHT22;11281;52.194;21.006;2022-12-29T13:10:22;7.80;99.90
22224;DHT22;11281;52.194;21.006;2022-12-29T13:19:44;7.80;99.90
22224;DHT22;11281;52.194;21.006;2022-12-29T13:24:26;7.80;99.90
22224;DHT22;11281;52.194;21.006;2022-12-29T13:33:39;7.80;99.90
22224;DHT22;11281;52.194;21.006;2022-12-29T13:38:50;7.90;99.90
22224;DHT22;11281;52.194;21.006;2022-12-29T13:43:24;7.90;99.90
22224;DHT22;11281;52.194;21.006;2022-12-29T13:47:52;8.00;99.90
22224;DHT22;11281;52.194;21.006;2022-12-29T13:52:27;8.00;99.90
22224;DHT22;11281;52.194;21.006;2022-12-29T13:57:07;7.90;99.90
22224;DHT22;11281;52.194;21.006;2022-12-29T14:01:59;8.00;99.90
22224;DHT22;11281;52.194;21.006;2022-12-29T14:06:35;7.80;99.90
22224;DHT22;11281;52.194;21.006;2022-12-29T14:11:09;7.90;99.90
22224;DHT22;11281;52.194;21.006;2022-12-29T14:15:31;8.00;99.90
22224;DHT22;11281;52.194;21.006;2022-12-29T14:19:54;7.70;99.90
22224;DHT22;11281;52.194;21.006;2022-12-29T14:24:43;7.60;99.90
22224;DHT22;11281;52.194;21.006;2022-12-29T14:38:32;7.30;99.90
22224;DHT22;11281;52.194;21.006;2022-12-29T14:42:55;7.30;99.90
22224;DHT22;11281;52.194;21.006;2022-12-29T14:52:04;7.10;99.90
22224;DHT22;11281;52.194;21.006;2022-12-29T14:56:28;6.90;99.90
22224;DHT22;11281;52.194;21.006;2022-12-29T15:00:53;6.80;99.90
22224;DHT22;11281;52.194;21.006;2022-12-29T15:10:15;6.50;99.90
22224;DHT22;11281;52.194;21.006;2022-12-29T15:14:47;6.60;99.90
22224;DHT22;11281;52.194;21.006;2022-12-29T15:19:24;6.50;99.90
22224;DHT22;11281;52.194;21.006;2022-12-29T15:23:48;6.40;99.90
22224;DHT22;11281;52.194;21.006;2022-12-29T15:28:12;6.50;99.90
22224;DHT22;11281;52.194;21.006;2022-12-29T15:32:43;6.50;99.90
22224;DHT22;11281;52.194;21.006;2022-12-29T15:37:07;6.50;99.90
22224;DHT22;11281;52.194;21.006;2022-12-29T15:41:41;6.40;99.90
22224;DHT22;11281;52.194;21.006;2022-12-29T15:46:25;6.40;99.90
22224;DHT22;11281;52.194;21.006;2022-12-29T15:50:48;6.20;99.90
22224;DHT22;11281;52.194;21.006;2022-12-29T15:55:36;6.20;99.90
22224;DHT22;11281;52.194;21.006;2022-12-29T15:59:59;6.40;99.90
22224;DHT22;11281;52.194;21.006;2022-12-29T16:04:21;6.60;99.90
22224;DHT22;11281;52.194;21.006;2022-12-29T16:08:56;6.40;99.90
22224;DHT22;11281;52.194;21.006;2022-12-29T16:13:38;6.40;99.90
22224;DHT22;11281;52.194;21.006;2022-12-29T16:18:01;6.60;99.90
22224;DHT22;11281;52.194;21.006;2022-12-29T16:31:49;6.20;99.90
22224;DHT22;11281;52.194;21.006;2022-12-29T16:36:51;6.00;99.90
22224;DHT22;11281;52.194;21.006;2022-12-29T16:41:29;6.20;99.90
22224;DHT22;11281;52.194;21.006;2022-12-29T16:50:18;6.60;99.90
22224;DHT22;11281;52.194;21.006;2022-12-29T16:54:50;6.70;99.90
22224;DHT22;11281;52.194;21.006;2022-12-29T16:59:47;6.70;99.90
22224;DHT22;11281;52.194;21.006;2022-12-29T17:04:09;7.00;99.90
22224;DHT22;11281;52.194;21.006;2022-12-29T17:08:40;7.10;99.90
22224;DHT22;11281;52.194;21.006;2022-12-29T17:13:02;7.20;99.90
22224;DHT22;11281;52.194;21.006;2022-12-29T17:17:37;7.20;99.90
22224;DHT22;11281;52.194;21.006;2022-12-29T17:22:00;7.50;99.90
22224;DHT22;11281;52.194;21.006;2022-12-29T17:26:23;7.70;99.90
22224;DHT22;11281;52.194;21.006;2022-12-29T17:30:44;7.70;99.90
22224;DHT22;11281;52.194;21.006;2022-12-29T17:35:13;7.70;99.90
22224;DHT22;11281;52.194;21.006;2022-12-29T17:39:36;7.70;99.90
22224;DHT22;11281;52.194;21.006;2022-12-29T17:43:58;7.70;99.90
22224;DHT22;11281;52.194;21.006;2022-12-29T17:48:20;7.80;99.90
22224;DHT22;11281;52.194;21.006;2022-12-29T17:52:43;8.00;99.90
22224;DHT22;11281;52.194;21.006;2022-12-29T17:57:18;7.80;99.90
22224;DHT22;11281;52.194;21.006;2022-12-29T18:01:42;7.60;99.90
22224;DHT22;11281;52.194;21.006;2022-12-29T18:06:05;7.40;99.90
22224;DHT22;11281;52.194;21.006;2022-12-29T18:10:29;7.20;99.90
22224;DHT22;11281;52.194;21.006;2022-12-29T18:14:52;7.30;99.90
22224;DHT22;11281;52.194;21.006;2022-12-29T18:19:13;7.30;99.90
22224;DHT22;11281;52.194;21.006;2022-12-29T18:23:35;7.40;99.90
22224;DHT22;11281;52.194;21.006;2022-12-29T18:27:57;7.40;99.90
22224;DHT22;11281;52.194;21.006;2022-12-29T18:32:19;7.40;99.90
22224;DHT22;11281;52.194;21.006;2022-12-29T18:36:41;7.40;99.90
22224;DHT22;11281;52.194;21.006;2022-12-29T18:41:03;7.50;99.90
22224;DHT22;11281;52.194;21.006;2022-12-29T18:45:25;7.40;99.90
22224;DHT22;11281;52.194;21.006;2022-12-29T18:49:47;7.50;99.90
22224;DHT22;11281;52.194;21.006;2022-12-29T18:54:27;7.50;99.90
22224;DHT22;11281;52.194;21.006;2022-12-29T18:58:50;7.40;99.90
22224;DHT22;11281;52.194;21.006;2022-12-29T19:03:15;7.50;99.90
22224;DHT22;11281;52.194;21.006;2022-12-29T19:07:38;7.60;99.90
22224;DHT22;11281;52.194;21.006;2022-12-29T19:11:59;7.60;99.90
22224;DHT22;11281;52.194;21.006;2022-12-29T19:16:21;7.60;99.90
22224;DHT22;11281;52.194;21.006;2022-12-29T19:20:46;7.50;99.90
22224;DHT22;11281;52.194;21.006;2022-12-29T19:25:08;7.40;99.90
22224;DHT22;11281;52.194;21.006;2022-12-29T19:29:31;7.30;99.90
22224;DHT22;11281;52.194;21.006;2022-12-29T19:33:52;7.20;99.90
22224;DHT22;11281;52.194;21.006;2022-12-29T19:38:14;7.20;99.90
22224;DHT22;11281;52.194;21.006;2022-12-29T19:42:36;7.30;99.90
22224;DHT22;11281;52.194;21.006;2022-12-29T19:46:58;7.30;99.90
22224;DHT22;11281;52.194;21.006;2022-12-29T19:51:20;7.20;99.90
22224;DHT22;11281;52.194;21.006;2022-12-29T19:55:45;7.30;99.90
22224;DHT22;11281;52.194;21.006;2022-12-29T20:00:09;7.40;99.90
22224;DHT22;11281;52.194;21.006;2022-12-29T20:04:31;7.40;99.90
22224;DHT22;11281;52.194;21.006;2022-12-29T20:08:53;7.50;99.90
22224;DHT22;11281;52.194;21.006;2022-12-29T20:13:15;7.50;99.90
22224;DHT22;11281;52.194;21.006;2022-12-29T20:17:40;7.40;99.90
22224;DHT22;11281;52.194;21.006;2022-12-29T20:22:03;7.50;99.90
22224;DHT22;11281;52.194;21.006;2022-12-29T20:26:27;7.50;99.90
22224;DHT22;11281;52.194;21.006;2022-12-29T20:31:11;7.50;99.90
22224;DHT22;11281;52.194;21.006;2022-12-29T20:35:36;7.30;99.90
22224;DHT22;11281;52.194;21.006;2022-12-29T20:39:58;7.00;99.90
22224;DHT22;11281;52.194;21.006;2022-12-29T20:44:19;6.90;99.90
22224;DHT22;11281;52.194;21.006;2022-12-29T20:48:43;6.80;99.90
22224;DHT22;11281;52.194;21.006;2022-12-29T20:53:05;6.80;99.90
22224;DHT22;11281;52.194;21.006;2022-12-29T20:57:26;6.70;99.90
22224;DHT22;11281;52.194;21.006;2022-12-29T21:01:48;6.50;99.90
22224;DHT22;11281;52.194;21.006;2022-12-29T21:06:10;6.60;99.90
22224;DHT22;11281;52.194;21.006;2022-12-29T21:10:33;6.80;99.90
22224;DHT22;11281;52.194;21.006;2022-12-29T21:14:54;6.80;99.90
22224;DHT22;11281;52.194;21.006;2022-12-29T21:19:16;6.90;99.90
22224;DHT22;11281;52.194;21.006;2022-12-29T21:23:38;7.00;99.90
22224;DHT22;11281;52.194;21.006;2022-12-29T21:28:01;7.10;99.90
22224;DHT22;11281;52.194;21.006;2022-12-29T21:32:29;7.20;99.90
22224;DHT22;11281;52.194;21.006;2022-12-29T21:36:51;7.10;99.90
22224;DHT22;11281;52.194;21.006;2022-12-29T21:41:15;7.10;99.90
22224;DHT22;11281;52.194;21.006;2022-12-29T21:45:37;7.30;99.90
22224;DHT22;11281;52.194;21.006;2022-12-29T21:49:59;7.40;99.90
22224;DHT22;11281;52.194;21.006;2022-12-29T21:54:26;7.40;99.90
22224;DHT22;11281;52.194;21.006;2022-12-29T21:59:07;7.40;99.90
22224;DHT22;11281;52.194;21.006;2022-12-29T22:03:48;7.30;99.90
22224;DHT22;11281;52.194;21.006;2022-12-29T22:08:28;7.10;99.90
22224;DHT22;11281;52.194;21.006;2022-12-29T22:13:08;7.30;99.90
22224;DHT22;11281;52.194;21.006;2022-12-29T22:17:30;7.20;99.90
22224;DHT22;11281;52.194;21.006;2022-12-29T22:21:51;7.20;99.90
22224;DHT22;11281;52.194;21.006;2022-12-29T22:26:14;7.30;99.90
22224;DHT22;11281;52.194;21.006;2022-12-29T22:30:36;6.90;99.90
22224;DHT22;11281;52.194;21.006;2022-12-29T22:34:58;7.00;99.90
22224;DHT22;11281;52.194;21.006;2022-12-29T22:39:20;6.90;99.90
22224;DHT22;11281;52.194;21.006;2022-12-29T22:43:41;6.80;99.90
22224;DHT22;11281;52.194;21.006;2022-12-29T22:48:04;6.70;99.90
22224;DHT22;11281;52.194;21.006;2022-12-29T22:52:26;6.80;99.90
22224;DHT22;11281;52.194;21.006;2022-12-29T22:56:48;6.70;99.90
22224;DHT22;11281;52.194;21.006;2022-12-29T23:01:12;6.70;99.90
22224;DHT22;11281;52.194;21.006;2022-12-29T23:05:35;6.80;99.90
22224;DHT22;11281;52.194;21.006;2022-12-29T23:09:57;6.90;99.90
22224;DHT22;11281;52.194;21.006;2022-12-29T23:14:18;7.10;99.90
22224;DHT22;11281;52.194;21.006;2022-12-29T23:18:40;7.10;99.90
22224;DHT22;11281;52.194;21.006;2022-12-29T23:23:02;7.20;99.90
22224;DHT22;11281;52.194;21.006;2022-12-29T23:27:24;7.20;99.90
22224;DHT22;11281;52.194;21.006;2022-12-29T23:31:46;7.30;99.90
22224;DHT22;11281;52.194;21.006;2022-12-29T23:36:09;7.30;99.90
22224;DHT22;11281;52.194;21.006;2022-12-29T23:40:30;7.40;99.90
22224;DHT22;11281;52.194;21.006;2022-12-29T23:44:52;7.40;99.90
22224;DHT22;11281;52.194;21.006;2022-12-29T23:49:14;7.40;99.90
22224;DHT22;11281;52.194;21.006;2022-12-29T23:53:38;7.30;99.90
22224;DHT22;11281;52.194;21.006;2022-12-29T23:58:01;7.40;99.90
